Time;durP1;ratioP1;P1;durP2;ratioP2;P2;SDS_P1;SDS_P2;PMS_P1;PMS_P2;Temp;Humidity;BMP_temperature;BMP_pressure;BME280_temperature;BME280_humidity;BME280_pressure;Samples;Min_cycle;Max_cycle;Signal;HPM_P1;HPM_P2
2024/02/24 00:00:28;;;;;;;3.40;2.30;;;7.40;51.30;;;;;;5058535;28;20496;-76
2024/02/24 00:02:54;;;;;;;3.37;1.97;;;7.40;52.10;;;;;;5060052;28;20393;-79
2024/02/24 00:05:19;;;;;;;3.87;2.20;;;7.40;52.10;;;;;;5068353;28;20377;-78
2024/02/24 00:07:45;;;;;;;4.55;2.38;;;7.40;52.50;;;;;;5069133;28;20457;-78
2024/02/24 00:10:11;;;;;;;3.00;1.50;;;7.40;52.60;;;;;;5066698;28;20614;-78
2024/02/24 00:12:37;;;;;;;2.88;1.50;;;7.50;51.30;;;;;;5071614;28;20420;-77
2024/02/24 00:15:03;;;;;;;3.05;1.88;;;7.60;50.00;;;;;;5071681;28;20393;-76
2024/02/24 00:17:28;;;;;;;3.40;1.45;;;7.60;50.50;;;;;;5072459;28;20535;-77
2024/02/24 00:19:54;;;;;;;2.58;1.60;;;7.50;50.60;;;;;;5071223;28;20411;-77
2024/02/24 00:22:19;;;;;;;5.28;2.47;;;7.50;50.30;;;;;;5065010;28;20470;-79
2024/02/24 00:24:45;;;;;;;3.15;1.40;;;7.60;51.00;;;;;;5064687;28;20377;-75
2024/02/24 00:27:10;;;;;;;3.53;2.08;;;7.60;50.10;;;;;;5071733;28;20377;-75
2024/02/24 00:29:36;;;;;;;3.00;2.37;;;7.50;50.70;;;;;;5075720;28;20389;-77
2024/02/24 00:32:01;;;;;;;7.97;3.73;;;7.70;50.10;;;;;;5073241;28;20810;-79
2024/02/24 00:34:27;;;;;;;3.80;1.80;;;7.60;50.20;;;;;;5064107;28;20393;-76
2024/02/24 00:36:52;;;;;;;4.90;2.07;;;7.50;50.20;;;;;;5070758;28;20393;-75
2024/02/24 00:39:18;;;;;;;2.00;1.70;;;7.50;50.20;;;;;;5069251;28;20409;-76
2024/02/24 00:41:44;;;;;;;2.00;1.60;;;7.30;51.20;;;;;;5065804;28;20444;-79
2024/02/24 00:44:09;;;;;;;1.70;1.40;;;7.30;50.80;;;;;;5061476;28;20396;-77
2024/02/24 00:46:35;;;;;;;2.83;1.73;;;7.10;51.70;;;;;;5065084;28;20385;-77
2024/02/24 00:49:01;;;;;;;2.95;2.25;;;7.00;52.50;;;;;;5065131;28;20400;-80
2024/02/24 00:51:27;;;;;;;3.58;2.20;;;7.00;53.30;;;;;;5064227;28;20393;-77
2024/02/24 00:53:52;;;;;;;4.95;2.47;;;7.10;52.80;;;;;;5065477;28;20392;-78
2024/02/24 00:56:19;;;;;;;2.38;1.40;;;7.10;53.20;;;;;;5063615;28;20408;-77
2024/02/24 00:58:44;;;;;;;2.80;2.00;;;7.00;53.10;;;;;;5063408;28;20446;-80
2024/02/24 01:01:10;;;;;;;4.93;2.50;;;7.00;53.20;;;;;;5063550;28;20468;-78
2024/02/24 01:03:35;;;;;;;5.10;2.70;;;6.90;54.20;;;;;;5062648;28;20400;-78
2024/02/24 01:06:01;;;;;;;2.90;2.40;;;6.80;54.60;;;;;;5063225;28;20442;-77
2024/02/24 01:08:27;;;;;;;4.90;2.60;;;6.80;55.30;;;;;;5064311;28;20384;-78
2024/02/24 01:10:52;;;;;;;3.40;1.80;;;6.80;55.70;;;;;;5065978;28;20377;-78
2024/02/24 01:13:18;;;;;;;4.90;2.63;;;6.60;55.50;;;;;;5067304;28;20378;-77
2024/02/24 01:15:43;;;;;;;4.07;2.45;;;6.50;56.80;;;;;;5066927;28;20488;-78
2024/02/24 01:18:09;;;;;;;3.33;2.30;;;6.40;57.30;;;;;;5065856;28;20400;-78
2024/02/24 01:20:34;;;;;;;2.80;1.97;;;6.40;57.70;;;;;;5063376;28;20406;-78
2024/02/24 01:23:00;;;;;;;2.50;1.92;;;6.30;58.30;;;;;;5062902;28;20393;-77
2024/02/24 01:25:26;;;;;;;2.13;1.88;;;6.20;59.20;;;;;;5062652;28;20377;-77
2024/02/24 01:27:53;;;;;;;2.22;2.00;;;6.30;59.40;;;;;;5062578;28;20392;-78
2024/02/24 01:30:19;;;;;;;4.17;2.30;;;6.30;59.30;;;;;;5063991;28;20385;-78
2024/02/24 01:32:44;;;;;;;2.33;2.10;;;6.40;59.30;;;;;;5063515;28;20385;-77
2024/02/24 01:35:10;;;;;;;3.70;2.30;;;6.60;58.00;;;;;;5072200;28;20926;-78
2024/02/24 01:37:36;;;;;;;5.10;2.78;;;6.60;57.80;;;;;;5064899;28;20412;-76
2024/02/24 01:40:06;;;;;;;2.55;1.63;;;6.50;58.30;;;;;;5071543;28;20446;-77
2024/02/24 01:42:32;;;;;;;2.57;2.20;;;6.50;58.10;;;;;;5069111;28;20382;-78
2024/02/24 01:44:57;;;;;;;3.38;2.60;;;6.50;58.00;;;;;;5058621;28;20394;-76
2024/02/24 01:47:23;;;;;;;3.10;1.77;;;6.60;59.10;;;;;;5073669;28;20389;-77
2024/02/24 01:49:52;;;;;;;5.78;2.20;;;6.70;57.30;;;;;;5076884;28;20416;-77
2024/02/24 01:52:18;;;;;;;4.38;1.90;;;6.60;58.10;;;;;;5076256;28;20377;-77
2024/02/24 01:54:44;;;;;;;5.53;2.20;;;6.60;58.30;;;;;;5076729;28;20397;-78
2024/02/24 01:57:12;;;;;;;4.47;2.78;;;6.60;58.40;;;;;;5075300;28;20378;-77
2024/02/24 01:59:38;;;;;;;2.17;1.90;;;6.60;59.30;;;;;;5060212;28;20488;-77
2024/02/24 02:02:04;;;;;;;5.60;2.47;;;6.70;58.30;;;;;;5058074;28;20446;-76
2024/02/24 02:04:30;;;;;;;3.53;3.03;;;6.60;58.00;;;;;;5056849;28;20373;-77
2024/02/24 02:06:55;;;;;;;4.77;2.17;;;6.70;58.50;;;;;;5055503;28;20392;-77
2024/02/24 02:09:22;;;;;;;4.60;2.10;;;6.70;57.10;;;;;;5054513;28;21056;-76
2024/02/24 02:11:48;;;;;;;3.40;2.00;;;6.70;58.10;;;;;;5055636;28;20451;-77
2024/02/24 02:14:13;;;;;;;2.70;2.00;;;6.70;57.70;;;;;;5054447;28;20875;-76
2024/02/24 02:16:39;;;;;;;4.67;2.10;;;6.60;58.50;;;;;;5054239;28;20382;-76
2024/02/24 02:19:04;;;;;;;5.50;2.10;;;6.60;59.10;;;;;;5052587;28;20497;-76
2024/02/24 02:21:35;;;;;;;4.67;2.17;;;6.60;59.50;;;;;;5054277;28;20386;-77
2024/02/24 02:24:02;;;;;;;4.57;2.33;;;6.70;58.70;;;;;;5060243;22;20423;-74
2024/02/24 02:26:27;;;;;;;4.88;2.40;;;6.80;59.40;;;;;;5032199;28;20391;-72
2024/02/24 02:28:53;;;;;;;3.35;1.88;;;6.70;59.50;;;;;;5032561;28;20872;-72
2024/02/24 02:31:19;;;;;;;3.40;2.10;;;6.70;58.90;;;;;;5033066;28;20462;-73
2024/02/24 02:33:44;;;;;;;3.03;2.17;;;6.70;60.00;;;;;;5032586;28;20889;-73
2024/02/24 02:36:10;;;;;;;2.58;1.63;;;6.60;60.00;;;;;;5032713;28;20662;-71
2024/02/24 02:38:35;;;;;;;3.97;2.03;;;6.60;59.90;;;;;;5032545;28;20423;-72
2024/02/24 02:41:04;;;;;;;3.00;2.30;;;6.60;61.30;;;;;;5033283;28;20383;-72
2024/02/24 02:43:29;;;;;;;2.83;1.88;;;6.60;61.80;;;;;;5032786;28;20387;-73
2024/02/24 02:45:55;;;;;;;3.50;2.10;;;6.70;60.70;;;;;;5032380;28;20721;-72
2024/02/24 02:48:20;;;;;;;5.20;2.90;;;6.70;60.80;;;;;;5031625;28;20426;-74
2024/02/24 02:50:46;;;;;;;2.20;2.00;;;6.70;61.20;;;;;;5032924;28;20401;-73
2024/02/24 02:53:11;;;;;;;3.57;2.10;;;6.70;61.10;;;;;;5032637;28;20797;-75
2024/02/24 02:55:37;;;;;;;3.67;1.93;;;6.70;61.40;;;;;;5033265;28;20439;-72
2024/02/24 02:58:03;;;;;;;3.55;2.38;;;6.70;62.00;;;;;;5034495;28;20395;-73
2024/02/24 03:00:28;;;;;;;2.80;2.33;;;6.70;62.20;;;;;;5036650;28;20926;-72
2024/02/24 03:02:54;;;;;;;4.57;2.47;;;6.70;62.60;;;;;;5036299;28;20394;-74
2024/02/24 03:05:20;;;;;;;2.97;2.30;;;6.70;62.20;;;;;;5035294;28;20892;-73
2024/02/24 03:07:45;;;;;;;3.30;2.00;;;6.70;61.90;;;;;;5034313;28;20384;-72
2024/02/24 03:10:11;;;;;;;6.27;2.20;;;6.70;62.20;;;;;;5035686;28;20387;-74
2024/02/24 03:12:37;;;;;;;3.35;1.80;;;6.70;61.80;;;;;;5035389;28;20916;-73
2024/02/24 03:15:03;;;;;;;3.80;2.90;;;6.60;62.00;;;;;;5032903;28;20395;-72
2024/02/24 03:17:29;;;;;;;3.25;1.70;;;6.40;62.50;;;;;;5032057;28;20502;-72
2024/02/24 03:19:54;;;;;;;2.87;1.83;;;6.40;63.00;;;;;;5031933;28;20491;-74
2024/02/24 03:22:20;;;;;;;4.10;1.70;;;6.20;64.70;;;;;;5032384;28;20415;-72
2024/02/24 03:24:45;;;;;;;2.37;2.00;;;6.10;67.00;;;;;;5032629;28;20822;-73
2024/02/24 03:27:11;;;;;;;4.80;2.17;;;6.10;66.80;;;;;;5032238;28;20901;-72
2024/02/24 03:29:36;;;;;;;2.33;1.90;;;6.00;68.50;;;;;;5033416;28;20853;-74
2024/02/24 03:32:03;;;;;;;3.60;2.10;;;6.00;69.80;;;;;;5031729;28;20395;-72
2024/02/24 03:34:28;;;;;;;2.30;1.95;;;5.90;70.70;;;;;;5032069;28;20445;-72
2024/02/24 03:36:54;;;;;;;4.67;2.17;;;6.00;70.40;;;;;;5031231;28;20387;-74
2024/02/24 03:39:21;;;;;;;1.60;1.42;;;6.10;70.70;;;;;;5031730;28;20410;-73
2024/02/24 03:41:47;;;;;;;4.30;2.50;;;6.20;69.50;;;;;;5031471;28;20387;-75
2024/02/24 03:44:13;;;;;;;2.30;1.80;;;6.20;70.00;;;;;;5032144;28;20448;-73
2024/02/24 03:46:38;;;;;;;2.50;1.60;;;6.20;69.00;;;;;;5031533;28;20387;-72
2024/02/24 03:49:04;;;;;;;2.20;1.65;;;6.30;67.60;;;;;;5032161;28;20957;-72
2024/02/24 03:51:29;;;;;;;2.60;2.00;;;6.20;67.70;;;;;;5031501;28;20434;-74
2024/02/24 03:53:55;;;;;;;1.92;1.50;;;6.30;68.10;;;;;;5030400;28;20399;-73
2024/02/24 03:56:20;;;;;;;1.70;1.50;;;6.30;67.10;;;;;;5031520;28;20916;-72
2024/02/24 03:58:46;;;;;;;2.00;1.67;;;6.30;66.90;;;;;;5030423;28;20407;-72
2024/02/24 04:01:11;;;;;;;2.90;1.70;;;6.30;66.00;;;;;;5032158;28;20467;-72
2024/02/24 04:03:37;;;;;;;2.73;1.90;;;6.20;66.50;;;;;;5031418;28;20799;-73
2024/02/24 04:06:04;;;;;;;3.20;2.00;;;6.20;66.60;;;;;;5031023;28;20401;-73
2024/02/24 04:08:30;;;;;;;2.53;1.60;;;6.20;66.90;;;;;;5031283;28;20398;-74
2024/02/24 04:10:55;;;;;;;3.63;1.73;;;6.30;66.10;;;;;;5031120;28;20379;-74
2024/02/24 04:13:21;;;;;;;2.97;2.00;;;6.10;67.10;;;;;;5031279;28;20442;-74
2024/02/24 04:15:47;;;;;;;2.83;1.73;;;6.00;68.00;;;;;;5031116;28;20383;-72
2024/02/24 04:18:14;;;;;;;3.97;2.00;;;6.00;68.50;;;;;;5030799;28;20757;-73
2024/02/24 04:20:40;;;;;;;1.85;1.50;;;5.90;69.50;;;;;;5030702;28;20414;-73
2024/02/24 04:23:05;;;;;;;2.10;1.60;;;5.90;70.40;;;;;;5031101;28;20384;-73
2024/02/24 04:25:31;;;;;;;2.50;1.60;;;5.90;70.30;;;;;;5030740;28;20398;-74
2024/02/24 04:27:56;;;;;;;3.20;1.90;;;5.90;70.30;;;;;;5030877;28;20391;-74
2024/02/24 04:30:22;;;;;;;2.30;1.60;;;6.00;69.10;;;;;;5030854;28;20390;-73
2024/02/24 04:32:48;;;;;;;5.32;1.70;;;6.00;67.50;;;;;;5030975;28;20723;-72
2024/02/24 04:35:14;;;;;;;3.30;1.85;;;5.90;69.20;;;;;;5030380;28;20463;-73
2024/02/24 04:37:40;;;;;;;3.55;1.90;;;5.70;70.80;;;;;;5030545;28;20474;-72
2024/02/24 04:40:07;;;;;;;2.65;1.90;;;5.70;71.90;;;;;;5030606;28;20891;-74
2024/02/24 04:42:33;;;;;;;3.30;2.17;;;5.70;72.40;;;;;;5030990;28;20387;-73
2024/02/24 04:44:58;;;;;;;2.83;1.58;;;5.80;71.80;;;;;;5030706;28;20804;-74
2024/02/24 04:47:25;;;;;;;2.92;1.80;;;5.80;71.90;;;;;;5030611;28;20414;-73
2024/02/24 04:49:51;;;;;;;3.38;2.00;;;5.80;72.10;;;;;;5031158;28;20737;-73
2024/02/24 04:52:17;;;;;;;2.83;1.60;;;5.70;71.80;;;;;;5030754;28;20397;-73
2024/02/24 04:54:42;;;;;;;2.40;1.70;;;5.70;71.90;;;;;;5030532;28;20395;-73
2024/02/24 04:57:08;;;;;;;3.53;1.73;;;5.60;72.70;;;;;;5030341;28;20791;-73
2024/02/24 04:59:35;;;;;;;1.65;1.40;;;5.50;73.20;;;;;;5030873;28;20407;-74
2024/02/24 05:02:00;;;;;;;1.90;1.70;;;5.40;74.30;;;;;;5030937;28;20379;-73
2024/02/24 05:04:26;;;;;;;3.28;1.80;;;5.40;75.50;;;;;;5030545;28;20378;-73
2024/02/24 05:06:51;;;;;;;4.25;2.15;;;5.40;75.60;;;;;;5030506;28;20394;-72
2024/02/24 05:09:17;;;;;;;2.50;2.00;;;5.30;76.50;;;;;;5029937;28;20390;-72
2024/02/24 05:11:43;;;;;;;3.30;2.00;;;5.30;77.30;;;;;;5028593;28;20391;-72
2024/02/24 05:14:08;;;;;;;2.38;1.70;;;5.20;77.80;;;;;;5030056;28;20394;-72
2024/02/24 05:16:38;;;;;;;2.05;1.58;;;5.30;78.30;;;;;;5028672;28;20398;-72
2024/02/24 05:19:04;;;;;;;1.88;1.65;;;5.30;78.00;;;;;;5030155;28;20407;-73
2024/02/24 05:21:29;;;;;;;2.03;1.80;;;5.30;78.60;;;;;;5030053;28;20375;-73
2024/02/24 05:23:55;;;;;;;4.32;1.70;;;5.40;77.90;;;;;;5030054;28;20406;-73
2024/02/24 05:26:28;;;;;;;5.10;2.08;;;5.40;77.30;;;;;;5029761;28;20929;-74
2024/02/24 05:28:57;;;;;;;5.88;2.10;;;5.50;76.80;;;;;;5030064;28;20445;-73
2024/02/24 05:31:23;;;;;;;3.40;1.80;;;5.60;75.90;;;;;;5032475;28;20387;-73
2024/02/24 05:33:51;;;;;;;4.03;1.77;;;5.60;74.80;;;;;;5033605;28;20387;-73
2024/02/24 05:36:18;;;;;;;3.10;1.70;;;5.70;74.70;;;;;;5033317;28;20453;-73
2024/02/24 05:38:44;;;;;;;2.20;1.60;;;5.90;71.70;;;;;;5033502;28;20387;-73
2024/02/24 05:41:09;;;;;;;1.77;1.40;;;6.10;70.00;;;;;;5033500;28;20434;-73
2024/02/24 05:43:35;;;;;;;2.88;1.65;;;6.00;70.00;;;;;;5033465;28;20817;-73
2024/02/24 05:46:06;;;;;;;2.45;1.70;;;6.10;69.40;;;;;;5033136;28;20379;-71
2024/02/24 05:48:35;;;;;;;1.90;1.50;;;6.10;69.70;;;;;;5033297;28;20383;-74
2024/02/24 05:51:04;;;;;;;2.63;1.75;;;6.10;68.70;;;;;;5033242;28;20393;-73
2024/02/24 05:53:29;;;;;;;3.22;1.45;;;6.20;68.90;;;;;;5033312;28;20387;-74
2024/02/24 05:55:55;;;;;;;2.85;1.58;;;6.10;68.70;;;;;;5033173;28;20402;-74
2024/02/24 05:58:21;;;;;;;4.40;1.63;;;6.40;66.30;;;;;;5033391;28;20474;-71
2024/02/24 06:00:47;;;;;;;2.00;1.50;;;6.30;65.70;;;;;;5033036;28;20406;-74
2024/02/24 06:03:12;;;;;;;2.22;1.33;;;6.20;66.60;;;;;;5033400;28;20405;-71
2024/02/24 06:05:39;;;;;;;1.70;1.40;;;6.20;65.70;;;;;;5032701;28;20441;-72
2024/02/24 06:08:05;;;;;;;3.28;1.45;;;6.20;66.00;;;;;;5033213;28;20383;-74
2024/02/24 06:10:30;;;;;;;2.28;1.48;;;6.30;66.10;;;;;;5032753;28;20869;-73
2024/02/24 06:12:56;;;;;;;2.97;1.40;;;6.30;64.90;;;;;;5032880;28;20449;-74
2024/02/24 06:15:22;;;;;;;1.70;1.40;;;6.30;65.10;;;;;;5032725;28;20394;-74
2024/02/24 06:17:47;;;;;;;1.80;1.30;;;6.30;65.70;;;;;;5033090;28;20386;-73
2024/02/24 06:20:13;;;;;;;1.73;1.33;;;6.30;65.20;;;;;;5033459;28;20407;-73
2024/02/24 06:22:38;;;;;;;5.30;1.50;;;6.40;64.00;;;;;;5033970;28;20460;-73
2024/02/24 06:25:05;;;;;;;2.70;1.50;;;6.40;63.70;;;;;;5033129;28;20449;-73
2024/02/24 06:27:31;;;;;;;2.85;1.75;;;6.30;64.30;;;;;;5032590;28;20383;-73
2024/02/24 06:29:57;;;;;;;2.20;1.42;;;6.40;65.00;;;;;;5032905;28;20394;-74
2024/02/24 06:32:23;;;;;;;2.65;1.55;;;6.50;62.90;;;;;;5032453;28;20445;-73
2024/02/24 06:34:49;;;;;;;4.40;1.38;;;6.60;61.90;;;;;;5034551;28;20391;-74
2024/02/24 06:37:14;;;;;;;11.20;4.80;;;6.50;63.60;;;;;;5034396;28;20423;-74
2024/02/24 06:39:40;;;;;;;2.30;1.80;;;6.50;62.50;;;;;;5038906;28;20403;-73
2024/02/24 06:42:05;;;;;;;3.78;1.70;;;6.40;63.80;;;;;;5038247;28;20458;-72
2024/02/24 06:44:31;;;;;;;4.15;1.63;;;6.40;63.40;;;;;;5033847;28;20441;-73
2024/02/24 06:46:56;;;;;;;2.55;1.80;;;6.50;62.80;;;;;;5033575;28;20393;-74
2024/02/24 06:49:22;;;;;;;2.93;1.67;;;6.50;63.30;;;;;;5035092;28;20388;-72
2024/02/24 06:51:47;;;;;;;5.13;1.70;;;6.50;62.90;;;;;;5033932;28;20395;-73
2024/02/24 06:54:13;;;;;;;4.00;2.00;;;6.50;62.60;;;;;;5033647;28;20387;-73
2024/02/24 06:56:38;;;;;;;2.77;1.90;;;6.60;61.80;;;;;;5032753;28;20750;-73
2024/02/24 06:59:06;;;;;;;3.13;1.80;;;6.70;61.60;;;;;;5031603;28;20962;-73
2024/02/24 07:01:35;;;;;;;3.70;1.85;;;6.70;61.40;;;;;;5031768;28;20789;-71
2024/02/24 07:04:00;;;;;;;2.40;2.13;;;6.70;61.40;;;;;;5031872;28;20376;-74
2024/02/24 07:06:26;;;;;;;2.65;2.25;;;6.80;61.00;;;;;;5031434;28;20383;-72
2024/02/24 07:08:52;;;;;;;3.95;2.03;;;6.90;61.30;;;;;;5031693;28;20415;-72
2024/02/24 07:11:17;;;;;;;3.07;1.80;;;6.90;61.10;;;;;;5031343;28;20383;-73
2024/02/24 07:13:43;;;;;;;3.33;2.23;;;6.90;61.00;;;;;;5031595;28;20394;-73
2024/02/24 07:16:09;;;;;;;4.97;2.30;;;7.00;61.10;;;;;;5031343;28;20831;-73
2024/02/24 07:18:36;;;;;;;3.25;2.20;;;6.90;61.00;;;;;;5031575;28;20462;-73
2024/02/24 07:21:02;;;;;;;3.85;1.80;;;6.90;60.80;;;;;;5031744;28;20395;-71
2024/02/24 07:23:28;;;;;;;2.80;1.98;;;7.00;60.00;;;;;;5031672;28;20387;-71
2024/02/24 07:25:53;;;;;;;5.15;2.10;;;6.90;61.00;;;;;;5031035;28;20712;-74
2024/02/24 07:28:19;;;;;;;3.35;2.40;;;7.00;60.50;;;;;;5031235;28;20375;-74
2024/02/24 07:30:45;;;;;;;4.13;2.60;;;7.00;60.00;;;;;;5031313;28;21048;-73
2024/02/24 07:33:11;;;;;;;3.07;2.60;;;7.10;57.80;;;;;;5031053;28;20421;-72
2024/02/24 07:35:36;;;;;;;5.70;2.60;;;7.20;58.40;;;;;;5029697;28;20456;-73
2024/02/24 07:38:02;;;;;;;7.57;3.08;;;7.20;58.30;;;;;;5031667;28;20482;-72
2024/02/24 07:40:28;;;;;;;4.22;3.10;;;7.30;58.60;;;;;;5031014;28;20410;-71
2024/02/24 07:42:54;;;;;;;4.25;2.50;;;7.40;59.30;;;;;;5031253;28;20386;-73
2024/02/24 07:45:21;;;;;;;2.78;2.30;;;7.40;57.90;;;;;;5030503;28;20931;-73
2024/02/24 07:47:48;;;;;;;2.50;2.28;;;7.40;56.50;;;;;;5034806;28;20473;-74
2024/02/24 07:50:13;;;;;;;3.35;2.40;;;7.40;56.20;;;;;;5032684;28;20953;-73
2024/02/24 07:52:39;;;;;;;3.80;2.80;;;7.50;56.20;;;;;;5030502;28;20425;-73
2024/02/24 07:55:05;;;;;;;4.53;2.60;;;7.50;56.40;;;;;;5030847;28;20390;-73
2024/02/24 07:57:31;;;;;;;4.82;2.80;;;7.60;55.50;;;;;;5030894;28;20446;-72
2024/02/24 07:59:57;;;;;;;5.80;2.80;;;7.70;54.80;;;;;;5030796;28;20446;-74
2024/02/24 08:02:23;;;;;;;4.45;2.38;;;7.80;54.30;;;;;;5031680;28;20386;-74
2024/02/24 08:04:48;;;;;;;4.80;2.37;;;7.80;54.50;;;;;;5032535;28;20387;-73
2024/02/24 08:07:14;;;;;;;2.90;2.20;;;7.90;53.90;;;;;;5037636;28;20387;-74
2024/02/24 08:09:39;;;;;;;5.68;2.70;;;7.80;54.30;;;;;;5047884;28;20389;-74
2024/02/24 08:12:05;;;;;;;3.80;2.63;;;7.80;55.30;;;;;;5037460;28;20396;-72
2024/02/24 08:14:31;;;;;;;3.30;2.80;;;7.80;56.10;;;;;;5032650;28;20397;-74
2024/02/24 08:16:56;;;;;;;8.98;2.80;;;7.90;56.10;;;;;;5029475;28;20873;-72
2024/02/24 08:19:22;;;;;;;4.55;2.83;;;7.90;56.00;;;;;;5037330;28;20693;-74
2024/02/24 08:21:49;;;;;;;5.43;2.90;;;7.90;56.40;;;;;;5050123;28;20386;-74
2024/02/24 08:24:16;;;;;;;4.13;2.20;;;8.00;56.30;;;;;;5071359;22;20519;-77
2024/02/24 08:26:44;;;;;;;3.33;2.10;;;8.00;51.90;;;;;;5078140;28;20392;-76
2024/02/24 08:29:10;;;;;;;3.08;2.00;;;7.90;54.70;;;;;;5088811;28;20441;-77
2024/02/24 08:31:36;;;;;;;4.82;2.00;;;7.80;54.70;;;;;;5079492;28;20384;-78
2024/02/24 08:34:02;;;;;;;4.30;1.60;;;7.80;56.10;;;;;;5091142;28;20405;-76
2024/02/24 08:36:27;;;;;;;5.70;2.17;;;7.70;56.60;;;;;;5101760;28;20382;-75
2024/02/24 08:38:53;;;;;;;2.80;2.20;;;7.60;58.50;;;;;;5098122;28;20481;-76
2024/02/24 08:41:19;;;;;;;5.78;2.10;;;7.60;59.00;;;;;;5094334;28;20382;-77
2024/02/24 08:43:45;;;;;;;7.78;3.13;;;7.70;58.60;;;;;;5093426;28;20417;-74
2024/02/24 08:46:10;;;;;;;3.90;2.20;;;7.70;59.80;;;;;;5090010;28;20752;-76
2024/02/24 08:48:36;;;;;;;4.97;2.83;;;7.70;58.60;;;;;;5091574;28;20800;-74
2024/02/24 08:51:04;;;;;;;2.50;2.10;;;7.80;57.40;;;;;;5088254;28;20471;-75
2024/02/24 08:53:29;;;;;;;3.47;2.20;;;7.90;54.10;;;;;;5070621;28;20390;-76
2024/02/24 08:55:58;;;;;;;4.67;2.30;;;7.90;53.90;;;;;;5071647;28;20483;-75
2024/02/24 08:58:24;;;;;;;2.78;1.95;;;8.10;53.00;;;;;;5059873;28;20482;-75
2024/02/24 09:00:54;;;;;;;6.70;2.45;;;7.90;53.80;;;;;;5066311;28;20483;-75
2024/02/24 09:03:20;;;;;;;6.35;2.20;;;7.90;54.60;;;;;;5056909;28;20476;-75
2024/02/24 09:05:45;;;;;;;3.47;2.20;;;7.80;55.20;;;;;;5056633;28;20376;-74
2024/02/24 09:08:11;;;;;;;4.00;2.33;;;7.70;56.20;;;;;;5062708;28;20392;-73
2024/02/24 09:10:36;;;;;;;3.57;2.20;;;7.70;57.20;;;;;;5054368;28;20392;-75
2024/02/24 09:13:02;;;;;;;2.77;1.50;;;7.70;56.10;;;;;;5071784;28;20845;-73
2024/02/24 09:15:28;;;;;;;4.30;1.30;;;7.60;53.60;;;;;;5072607;28;20792;-74
2024/02/24 09:17:54;;;;;;;2.77;1.20;;;7.60;53.80;;;;;;5074506;28;20392;-75
2024/02/24 09:20:19;;;;;;;2.60;1.20;;;7.50;51.00;;;;;;5074760;28;20722;-75
2024/02/24 09:22:45;;;;;;;1.73;1.10;;;7.60;53.00;;;;;;5067795;28;20377;-77
2024/02/24 09:25:16;;;;;;;2.93;1.30;;;7.80;51.70;;;;;;5063543;28;20398;-76
2024/02/24 09:27:43;;;;;;;2.70;1.07;;;7.90;50.40;;;;;;5059655;28;21013;-73
2024/02/24 09:30:12;;;;;;;1.67;1.00;;;7.90;49.50;;;;;;5071099;28;20766;-73
2024/02/24 09:32:39;;;;;;;1.88;1.10;;;8.00;50.20;;;;;;5068339;28;20399;-75
2024/02/24 09:35:06;;;;;;;1.20;0.90;;;8.00;48.60;;;;;;5053894;28;20393;-75
2024/02/24 09:37:32;;;;;;;1.00;0.80;;;8.10;47.50;;;;;;5063662;28;20449;-73
2024/02/24 09:39:58;;;;;;;3.03;1.15;;;8.10;48.50;;;;;;5070615;28;20493;-73
2024/02/24 09:42:27;;;;;;;3.00;1.00;;;8.10;48.90;;;;;;5053811;28;20424;-73
2024/02/24 09:44:58;;;;;;;3.90;1.05;;;8.40;48.40;;;;;;5054321;28;20446;-77
2024/02/24 09:47:24;;;;;;;2.95;0.95;;;8.70;44.10;;;;;;5057653;28;20391;-73
2024/02/24 09:49:52;;;;;;;3.72;1.10;;;8.80;40.90;;;;;;5067249;28;20379;-74
2024/02/24 09:52:18;;;;;;;2.57;0.90;;;8.80;40.60;;;;;;5066750;28;20384;-74
2024/02/24 09:54:43;;;;;;;5.13;1.00;;;8.90;40.50;;;;;;5054975;28;20392;-75
2024/02/24 09:57:13;;;;;;;2.00;1.20;;;9.00;42.10;;;;;;5074953;28;20387;-78
2024/02/24 09:59:38;;;;;;;2.78;0.90;;;9.00;39.90;;;;;;5063691;28;20439;-75
2024/02/24 10:02:04;;;;;;;3.90;1.20;;;9.10;39.60;;;;;;5068408;28;20485;-76
2024/02/24 10:04:30;;;;;;;2.10;1.10;;;9.00;39.00;;;;;;5073097;28;20374;-78
2024/02/24 10:06:55;;;;;;;3.05;1.00;;;8.90;39.60;;;;;;5069847;28;20386;-75
2024/02/24 10:09:21;;;;;;;1.50;0.90;;;8.80;39.10;;;;;;5071351;28;20401;-75
2024/02/24 10:11:47;;;;;;;3.20;1.00;;;8.70;39.80;;;;;;5067819;28;20403;-75
2024/02/24 10:14:13;;;;;;;2.40;1.10;;;8.70;40.10;;;;;;5062196;28;20396;-77
2024/02/24 10:16:39;;;;;;;2.70;1.07;;;8.60;39.20;;;;;;5065994;28;20373;-76
2024/02/24 10:19:06;;;;;;;1.27;0.90;;;8.60;39.60;;;;;;5064630;28;20425;-78
2024/02/24 10:21:32;;;;;;;3.00;1.20;;;8.70;39.90;;;;;;5061740;28;20886;-77
2024/02/24 10:23:58;;;;;;;2.30;1.40;;;8.70;40.40;;;;;;5063188;28;20390;-77
2024/02/24 10:26:24;;;;;;;1.40;1.20;;;8.80;39.10;;;;;;5062606;28;20408;-77
2024/02/24 10:28:50;;;;;;;4.70;1.50;;;9.00;38.60;;;;;;5067424;28;20397;-77
2024/02/24 10:31:16;;;;;;;4.00;1.30;;;9.00;39.30;;;;;;5068142;28;20397;-77
2024/02/24 10:33:42;;;;;;;5.85;1.60;;;9.10;39.20;;;;;;5066701;28;20394;-76
2024/02/24 10:36:09;;;;;;;4.47;1.40;;;9.10;38.00;;;;;;5065239;28;20449;-77
2024/02/24 10:38:38;;;;;;;2.10;1.00;;;9.00;37.50;;;;;;5078528;28;20516;-77
2024/02/24 10:41:04;;;;;;;2.33;1.30;;;8.60;38.80;;;;;;5065351;28;20381;-76
2024/02/24 10:43:31;;;;;;;2.83;1.20;;;8.40;40.30;;;;;;5066493;28;20441;-77
2024/02/24 10:45:56;;;;;;;3.55;1.60;;;8.30;41.90;;;;;;5065396;28;20779;-76
2024/02/24 10:48:22;;;;;;;3.80;1.50;;;8.30;42.50;;;;;;5067016;28;20501;-77
2024/02/24 10:50:48;;;;;;;1.90;1.10;;;8.30;43.10;;;;;;5071712;28;20429;-74
2024/02/24 10:53:17;;;;;;;4.70;1.20;;;8.50;42.00;;;;;;5077259;28;20436;-75
2024/02/24 10:55:44;;;;;;;2.95;1.20;;;8.50;41.70;;;;;;5074771;28;20914;-77
2024/02/24 10:58:09;;;;;;;3.50;1.02;;;8.50;39.50;;;;;;5070867;28;20409;-74
2024/02/24 11:00:36;;;;;;;3.10;1.10;;;8.90;38.50;;;;;;5068629;28;20533;-79
2024/02/24 11:03:04;;;;;;;5.22;1.30;;;9.10;37.40;;;;;;5064139;28;20432;-76
2024/02/24 11:05:30;;;;;;;5.32;1.75;;;9.50;37.60;;;;;;5069077;28;20386;-76
2024/02/24 11:07:56;;;;;;;4.80;1.80;;;9.70;36.00;;;;;;5069549;28;20384;-74
2024/02/24 11:10:22;;;;;;;4.78;1.48;;;9.90;33.50;;;;;;5074475;28;20376;-78
2024/02/24 11:12:51;;;;;;;2.90;1.10;;;10.00;33.10;;;;;;5071216;28;20415;-76
2024/02/24 11:15:18;;;;;;;1.70;1.20;;;10.20;32.60;;;;;;5071443;28;20458;-77
2024/02/24 11:17:51;;;;;;;3.42;1.20;;;10.40;31.30;;;;;;5075038;28;20397;-76
2024/02/24 11:20:37;;;;;;;1.55;0.93;;;10.60;28.90;;;;;;5076330;28;20413;-75
2024/02/24 11:23:21;;;;;;;1.63;0.90;;;10.50;26.50;;;;;;5076615;28;20381;-75
2024/02/24 11:25:47;;;;;;;2.50;1.15;;;10.50;25.90;;;;;;5075115;28;20412;-74
2024/02/24 11:28:24;;;;;;;2.42;1.30;;;10.50;26.60;;;;;;5075376;28;20385;-76
2024/02/24 11:30:53;;;;;;;4.60;1.60;;;10.60;25.80;;;;;;5069471;28;20361;-77
2024/02/24 11:33:27;;;;;;;4.82;1.50;;;10.90;25.50;;;;;;5070991;28;20890;-77
2024/02/24 11:35:54;;;;;;;1.55;1.00;;;11.20;23.50;;;;;;5068954;28;20385;-76
2024/02/24 11:38:24;;;;;;;2.85;0.90;;;11.40;21.00;;;;;;5066896;28;20482;-76
2024/02/24 11:40:50;;;;;;;3.30;1.20;;;11.60;21.00;;;;;;5079486;28;20405;-77
2024/02/24 11:43:17;;;;;;;2.15;1.10;;;11.80;21.30;;;;;;5066468;28;20457;-76
2024/02/24 11:45:48;;;;;;;3.55;1.63;;;12.10;19.50;;;;;;5063249;28;20386;-76
2024/02/24 11:48:19;;;;;;;3.47;1.48;;;12.20;19.80;;;;;;5064341;28;20439;-78
2024/02/24 11:50:45;;;;;;;2.30;1.20;;;12.20;19.10;;;;;;5064010;28;20823;-77
2024/02/24 11:53:16;;;;;;;3.30;1.60;;;11.90;19.60;;;;;;5064390;28;20741;-78
2024/02/24 11:55:46;;;;;;;2.60;1.33;;;11.90;19.70;;;;;;5066648;28;20425;-77
2024/02/24 11:58:13;;;;;;;3.30;1.35;;;11.80;20.40;;;;;;5067308;28;20399;-77
2024/02/24 12:00:40;;;;;;;3.97;1.20;;;11.80;20.10;;;;;;5067220;28;20492;-77
2024/02/24 12:03:14;;;;;;;1.92;1.13;;;11.80;20.00;;;;;;5068762;28;20381;-79
2024/02/24 12:05:40;;;;;;;3.85;1.27;;;11.90;19.70;;;;;;5067156;28;20381;-77
2024/02/24 12:08:10;;;;;;;3.35;1.30;;;11.90;19.50;;;;;;5066126;28;20397;-76
2024/02/24 12:10:37;;;;;;;1.20;0.93;;;11.50;19.70;;;;;;5068283;28;20400;-76
2024/02/24 12:13:10;;;;;;;2.70;1.30;;;11.40;19.90;;;;;;5070762;28;20397;-77
2024/02/24 12:15:38;;;;;;;5.60;1.50;;;11.20;20.50;;;;;;5064390;28;20389;-77
2024/02/24 12:18:07;;;;;;;3.08;1.20;;;10.90;21.50;;;;;;5067759;28;20389;-76
2024/02/24 12:20:37;;;;;;;2.80;1.00;;;10.80;21.00;;;;;;5064859;28;20413;-75
2024/02/24 12:23:07;;;;;;;2.08;1.08;;;10.80;21.40;;;;;;5065683;28;20868;-77
2024/02/24 12:25:33;;;;;;;3.30;1.30;;;10.70;21.70;;;;;;5064693;28;20389;-77
2024/02/24 12:28:00;;;;;;;2.80;1.20;;;10.60;22.00;;;;;;5064824;28;20381;-77
2024/02/24 12:30:34;;;;;;;5.30;1.40;;;10.60;22.70;;;;;;5064019;28;21239;-76
2024/02/24 12:33:01;;;;;;;4.93;1.30;;;10.70;22.50;;;;;;5067799;28;20393;-78
2024/02/24 12:35:30;;;;;;;3.75;1.10;;;10.80;22.00;;;;;;5063872;28;20386;-80
2024/02/24 12:37:56;;;;;;;2.90;1.40;;;10.80;22.10;;;;;;5063141;28;20390;-75
2024/02/24 12:40:27;;;;;;;2.92;1.40;;;10.90;22.70;;;;;;5068980;28;20421;-76
2024/02/24 12:42:53;;;;;;;4.90;1.40;;;10.90;22.50;;;;;;5064560;28;20420;-75
2024/02/24 12:45:19;;;;;;;3.60;1.20;;;10.70;23.30;;;;;;5072618;28;20670;-74
2024/02/24 12:47:49;;;;;;;6.20;1.37;;;10.70;23.30;;;;;;5093083;28;20372;-76
2024/02/24 12:50:18;;;;;;;4.20;1.30;;;10.50;23.70;;;;;;5074375;28;20454;-75